sensor_id;sensor_type;location;lat;lon;timestamp;P1;durP1;ratioP1;P2;durP2;ratioP2
22363;SDS011;11349;53.412;-1.328;2022-09-09T00:04:44;45.53;;;25.73;;
22363;SDS011;11349;53.412;-1.328;2022-09-09T00:14:56;42.47;;;28.02;;
22363;SDS011;11349;53.412;-1.328;2022-09-09T00:17:43;39.45;;;26.85;;
22363;SDS011;11349;53.412;-1.328;2022-09-09T00:23:11;45.92;;;28.60;;
22363;SDS011;11349;53.412;-1.328;2022-09-09T00:28:36;47.60;;;28.08;;
22363;SDS011;11349;53.412;-1.328;2022-09-09T00:31:12;42.20;;;26.80;;
22363;SDS011;11349;53.412;-1.328;2022-09-09T00:33:41;45.88;;;28.55;;
22363;SDS011;11349;53.412;-1.328;2022-09-09T00:36:13;44.50;;;27.13;;
22363;SDS011;11349;53.412;-1.328;2022-09-09T00:39:00;39.85;;;26.40;;
22363;SDS011;11349;53.412;-1.328;2022-09-09T00:41:34;41.58;;;26.48;;
22363;SDS011;11349;53.412;-1.328;2022-09-09T00:44:06;43.53;;;28.52;;
22363;SDS011;11349;53.412;-1.328;2022-09-09T00:59:51;69.35;;;25.30;;
22363;SDS011;11349;53.412;-1.328;2022-09-09T01:04:57;51.92;;;25.05;;
22363;SDS011;11349;53.412;-1.328;2022-09-09T01:07:30;43.25;;;24.25;;
22363;SDS011;11349;53.412;-1.328;2022-09-09T01:09:57;39.15;;;23.27;;
22363;SDS011;11349;53.412;-1.328;2022-09-09T01:12:28;53.70;;;23.42;;
22363;SDS011;11349;53.412;-1.328;2022-09-09T01:15:10;71.55;;;24.10;;
22363;SDS011;11349;53.412;-1.328;2022-09-09T01:20:14;67.20;;;23.98;;
22363;SDS011;11349;53.412;-1.328;2022-09-09T01:22:50;53.78;;;21.63;;
22363;SDS011;11349;53.412;-1.328;2022-09-09T01:28:21;68.68;;;23.00;;
22363;SDS011;11349;53.412;-1.328;2022-09-09T01:30:50;32.53;;;19.67;;
22363;SDS011;11349;53.412;-1.328;2022-09-09T01:33:17;47.55;;;22.67;;
22363;SDS011;11349;53.412;-1.328;2022-09-09T01:36:04;73.35;;;22.15;;
22363;SDS011;11349;53.412;-1.328;2022-09-09T01:38:44;40.08;;;20.58;;
22363;SDS011;11349;53.412;-1.328;2022-09-09T01:41:10;58.35;;;23.00;;
22363;SDS011;11349;53.412;-1.328;2022-09-09T01:43:36;54.08;;;23.00;;
22363;SDS011;11349;53.412;-1.328;2022-09-09T01:46:02;66.25;;;26.20;;
22363;SDS011;11349;53.412;-1.328;2022-09-09T01:48:28;62.75;;;24.92;;
22363;SDS011;11349;53.412;-1.328;2022-09-09T01:50:54;53.58;;;23.13;;
22363;SDS011;11349;53.412;-1.328;2022-09-09T01:53:21;46.53;;;25.17;;
22363;SDS011;11349;53.412;-1.328;2022-09-09T02:01:33;53.28;;;24.83;;
22363;SDS011;11349;53.412;-1.328;2022-09-09T02:07:01;70.93;;;27.13;;
22363;SDS011;11349;53.412;-1.328;2022-09-09T02:09:29;48.05;;;24.45;;
22363;SDS011;11349;53.412;-1.328;2022-09-09T02:11:57;85.95;;;30.23;;
22363;SDS011;11349;53.412;-1.328;2022-09-09T02:14:34;71.53;;;30.88;;
22363;SDS011;11349;53.412;-1.328;2022-09-09T02:17:08;62.15;;;30.80;;
22363;SDS011;11349;53.412;-1.328;2022-09-09T02:19:39;55.72;;;30.40;;
22363;SDS011;11349;53.412;-1.328;2022-09-09T02:22:11;53.22;;;28.77;;
22363;SDS011;11349;53.412;-1.328;2022-09-09T02:24:39;59.03;;;31.98;;
22363;SDS011;11349;53.412;-1.328;2022-09-09T02:27:06;55.47;;;29.45;;
22363;SDS011;11349;53.412;-1.328;2022-09-09T02:29:34;61.65;;;33.45;;
22363;SDS011;11349;53.412;-1.328;2022-09-09T02:32:06;64.05;;;33.97;;
22363;SDS011;11349;53.412;-1.328;2022-09-09T02:34:36;68.15;;;35.83;;
22363;SDS011;11349;53.412;-1.328;2022-09-09T02:37:12;63.40;;;34.05;;
22363;SDS011;11349;53.412;-1.328;2022-09-09T02:39:44;64.68;;;34.42;;
22363;SDS011;11349;53.412;-1.328;2022-09-09T02:42:09;60.20;;;33.33;;
22363;SDS011;11349;53.412;-1.328;2022-09-09T02:44:35;61.47;;;33.75;;
22363;SDS011;11349;53.412;-1.328;2022-09-09T02:50:16;67.28;;;34.92;;
22363;SDS011;11349;53.412;-1.328;2022-09-09T02:53:04;67.13;;;36.50;;
22363;SDS011;11349;53.412;-1.328;2022-09-09T02:55:38;56.20;;;33.00;;
22363;SDS011;11349;53.412;-1.328;2022-09-09T02:58:09;62.75;;;32.97;;
22363;SDS011;11349;53.412;-1.328;2022-09-09T03:00:38;60.22;;;32.58;;
22363;SDS011;11349;53.412;-1.328;2022-09-09T03:03:05;55.85;;;31.40;;
22363;SDS011;11349;53.412;-1.328;2022-09-09T03:05:33;52.90;;;31.58;;
22363;SDS011;11349;53.412;-1.328;2022-09-09T03:07:59;52.03;;;29.23;;
22363;SDS011;11349;53.412;-1.328;2022-09-09T03:10:25;50.17;;;29.33;;
22363;SDS011;11349;53.412;-1.328;2022-09-09T03:12:50;52.80;;;28.42;;
22363;SDS011;11349;53.412;-1.328;2022-09-09T03:15:16;54.92;;;32.35;;
22363;SDS011;11349;53.412;-1.328;2022-09-09T03:17:42;49.25;;;27.42;;
22363;SDS011;11349;53.412;-1.328;2022-09-09T03:20:08;51.15;;;30.83;;
22363;SDS011;11349;53.412;-1.328;2022-09-09T03:22:34;48.10;;;29.50;;
22363;SDS011;11349;53.412;-1.328;2022-09-09T03:25:00;52.17;;;29.08;;
22363;SDS011;11349;53.412;-1.328;2022-09-09T03:27:27;47.78;;;29.85;;
22363;SDS011;11349;53.412;-1.328;2022-09-09T03:29:53;53.75;;;29.77;;
22363;SDS011;11349;53.412;-1.328;2022-09-09T03:32:22;53.30;;;30.25;;
22363;SDS011;11349;53.412;-1.328;2022-09-09T03:34:49;51.72;;;30.10;;
22363;SDS011;11349;53.412;-1.328;2022-09-09T03:37:18;48.13;;;29.08;;
22363;SDS011;11349;53.412;-1.328;2022-09-09T03:39:44;45.53;;;27.95;;
22363;SDS011;11349;53.412;-1.328;2022-09-09T03:42:13;48.75;;;28.80;;
22363;SDS011;11349;53.412;-1.328;2022-09-09T03:44:43;41.40;;;25.52;;
22363;SDS011;11349;53.412;-1.328;2022-09-09T03:47:12;40.65;;;24.40;;
22363;SDS011;11349;53.412;-1.328;2022-09-09T03:49:38;37.58;;;24.02;;
22363;SDS011;11349;53.412;-1.328;2022-09-09T03:52:03;37.88;;;23.98;;
22363;SDS011;11349;53.412;-1.328;2022-09-09T03:54:29;37.17;;;23.88;;
22363;SDS011;11349;53.412;-1.328;2022-09-09T03:56:55;29.05;;;21.17;;
22363;SDS011;11349;53.412;-1.328;2022-09-09T03:59:20;32.53;;;21.45;;
22363;SDS011;11349;53.412;-1.328;2022-09-09T04:01:46;32.33;;;21.80;;
22363;SDS011;11349;53.412;-1.328;2022-09-09T04:04:12;36.13;;;23.92;;
22363;SDS011;11349;53.412;-1.328;2022-09-09T04:06:38;32.88;;;21.98;;
22363;SDS011;11349;53.412;-1.328;2022-09-09T04:09:04;29.48;;;21.50;;
22363;SDS011;11349;53.412;-1.328;2022-09-09T04:11:29;32.33;;;21.27;;
22363;SDS011;11349;53.412;-1.328;2022-09-09T04:13:55;34.72;;;21.35;;
22363;SDS011;11349;53.412;-1.328;2022-09-09T04:16:21;36.88;;;22.25;;
22363;SDS011;11349;53.412;-1.328;2022-09-09T04:18:46;27.75;;;19.70;;
22363;SDS011;11349;53.412;-1.328;2022-09-09T04:21:13;32.33;;;20.52;;
22363;SDS011;11349;53.412;-1.328;2022-09-09T04:23:40;28.15;;;20.83;;
22363;SDS011;11349;53.412;-1.328;2022-09-09T04:26:06;33.65;;;21.38;;
22363;SDS011;11349;53.412;-1.328;2022-09-09T04:28:32;37.75;;;22.08;;
22363;SDS011;11349;53.412;-1.328;2022-09-09T04:31:03;30.02;;;20.40;;
22363;SDS011;11349;53.412;-1.328;2022-09-09T04:33:31;32.53;;;20.50;;
22363;SDS011;11349;53.412;-1.328;2022-09-09T04:35:56;43.67;;;24.60;;
22363;SDS011;11349;53.412;-1.328;2022-09-09T04:38:22;36.00;;;21.60;;
22363;SDS011;11349;53.412;-1.328;2022-09-09T04:40:48;40.20;;;23.13;;
22363;SDS011;11349;53.412;-1.328;2022-09-09T04:43:16;38.28;;;22.50;;
22363;SDS011;11349;53.412;-1.328;2022-09-09T04:45:46;36.97;;;22.23;;
22363;SDS011;11349;53.412;-1.328;2022-09-09T04:48:12;41.30;;;23.90;;
22363;SDS011;11349;53.412;-1.328;2022-09-09T04:50:38;41.08;;;24.58;;
22363;SDS011;11349;53.412;-1.328;2022-09-09T04:53:05;38.50;;;25.35;;
22363;SDS011;11349;53.412;-1.328;2022-09-09T04:55:32;38.85;;;24.10;;
22363;SDS011;11349;53.412;-1.328;2022-09-09T04:58:03;39.78;;;24.27;;
22363;SDS011;11349;53.412;-1.328;2022-09-09T05:00:30;42.05;;;26.02;;
22363;SDS011;11349;53.412;-1.328;2022-09-09T05:02:56;41.33;;;21.45;;
22363;SDS011;11349;53.412;-1.328;2022-09-09T05:05:22;38.63;;;23.88;;
22363;SDS011;11349;53.412;-1.328;2022-09-09T05:07:47;39.72;;;24.17;;
22363;SDS011;11349;53.412;-1.328;2022-09-09T05:10:14;42.10;;;24.05;;
22363;SDS011;11349;53.412;-1.328;2022-09-09T05:12:41;41.97;;;25.17;;
22363;SDS011;11349;53.412;-1.328;2022-09-09T05:15:07;41.25;;;22.13;;
22363;SDS011;11349;53.412;-1.328;2022-09-09T05:17:34;39.08;;;22.25;;
22363;SDS011;11349;53.412;-1.328;2022-09-09T05:20:00;37.83;;;21.45;;
22363;SDS011;11349;53.412;-1.328;2022-09-09T05:22:28;42.00;;;21.75;;
22363;SDS011;11349;53.412;-1.328;2022-09-09T05:24:53;33.70;;;21.17;;
22363;SDS011;11349;53.412;-1.328;2022-09-09T05:27:19;36.47;;;22.30;;
22363;SDS011;11349;53.412;-1.328;2022-09-09T05:29:45;40.83;;;22.98;;
22363;SDS011;11349;53.412;-1.328;2022-09-09T05:32:11;38.13;;;23.05;;
22363;SDS011;11349;53.412;-1.328;2022-09-09T05:34:38;40.67;;;22.85;;
22363;SDS011;11349;53.412;-1.328;2022-09-09T05:37:04;36.50;;;22.80;;
22363;SDS011;11349;53.412;-1.328;2022-09-09T05:39:30;46.00;;;24.92;;
22363;SDS011;11349;53.412;-1.328;2022-09-09T05:41:56;41.88;;;23.23;;
22363;SDS011;11349;53.412;-1.328;2022-09-09T05:44:22;38.95;;;24.27;;
22363;SDS011;11349;53.412;-1.328;2022-09-09T05:46:50;39.50;;;24.77;;
22363;SDS011;11349;53.412;-1.328;2022-09-09T05:49:15;41.45;;;24.30;;
22363;SDS011;11349;53.412;-1.328;2022-09-09T05:51:42;40.85;;;24.00;;
22363;SDS011;11349;53.412;-1.328;2022-09-09T05:54:10;40.33;;;24.83;;
22363;SDS011;11349;53.412;-1.328;2022-09-09T05:56:40;37.50;;;23.55;;
22363;SDS011;11349;53.412;-1.328;2022-09-09T05:59:06;43.47;;;26.17;;
22363;SDS011;11349;53.412;-1.328;2022-09-09T06:01:32;44.80;;;24.75;;
22363;SDS011;11349;53.412;-1.328;2022-09-09T06:04:00;42.55;;;24.05;;
22363;SDS011;11349;53.412;-1.328;2022-09-09T06:06:26;42.75;;;23.80;;
22363;SDS011;11349;53.412;-1.328;2022-09-09T06:08:57;41.67;;;24.45;;
22363;SDS011;11349;53.412;-1.328;2022-09-09T06:11:23;48.83;;;24.98;;
22363;SDS011;11349;53.412;-1.328;2022-09-09T06:13:51;43.83;;;25.30;;
22363;SDS011;11349;53.412;-1.328;2022-09-09T06:16:19;42.35;;;24.08;;
22363;SDS011;11349;53.412;-1.328;2022-09-09T06:18:50;42.53;;;25.25;;
22363;SDS011;11349;53.412;-1.328;2022-09-09T06:21:23;41.10;;;25.13;;
22363;SDS011;11349;53.412;-1.328;2022-09-09T06:23:50;40.63;;;24.52;;
22363;SDS011;11349;53.412;-1.328;2022-09-09T06:26:17;35.15;;;22.10;;
22363;SDS011;11349;53.412;-1.328;2022-09-09T06:28:45;38.65;;;22.80;;
22363;SDS011;11349;53.412;-1.328;2022-09-09T06:31:13;38.58;;;21.83;;
22363;SDS011;11349;53.412;-1.328;2022-09-09T06:33:47;35.90;;;21.50;;
22363;SDS011;11349;53.412;-1.328;2022-09-09T06:36:18;43.92;;;22.95;;
22363;SDS011;11349;53.412;-1.328;2022-09-09T06:38:45;37.63;;;21.40;;
22363;SDS011;11349;53.412;-1.328;2022-09-09T06:41:12;34.55;;;19.98;;
22363;SDS011;11349;53.412;-1.328;2022-09-09T06:43:39;42.58;;;23.80;;
22363;SDS011;11349;53.412;-1.328;2022-09-09T06:46:06;38.28;;;22.45;;
22363;SDS011;11349;53.412;-1.328;2022-09-09T06:48:35;36.60;;;24.75;;
22363;SDS011;11349;53.412;-1.328;2022-09-09T06:51:04;41.00;;;24.70;;
22363;SDS011;11349;53.412;-1.328;2022-09-09T06:53:36;36.47;;;23.30;;
22363;SDS011;11349;53.412;-1.328;2022-09-09T06:56:22;45.47;;;23.27;;
22363;SDS011;11349;53.412;-1.328;2022-09-09T06:58:53;39.55;;;24.90;;
22363;SDS011;11349;53.412;-1.328;2022-09-09T07:01:28;42.13;;;26.08;;
22363;SDS011;11349;53.412;-1.328;2022-09-09T07:03:56;48.92;;;26.35;;
22363;SDS011;11349;53.412;-1.328;2022-09-09T07:06:43;42.55;;;25.98;;
22363;SDS011;11349;53.412;-1.328;2022-09-09T07:09:12;39.90;;;24.67;;
22363;SDS011;11349;53.412;-1.328;2022-09-09T07:11:44;40.50;;;24.50;;
22363;SDS011;11349;53.412;-1.328;2022-09-09T07:14:12;34.25;;;21.45;;
22363;SDS011;11349;53.412;-1.328;2022-09-09T07:16:42;37.15;;;21.38;;
22363;SDS011;11349;53.412;-1.328;2022-09-09T07:19:09;34.90;;;19.25;;
22363;SDS011;11349;53.412;-1.328;2022-09-09T07:21:36;34.30;;;20.55;;
22363;SDS011;11349;53.412;-1.328;2022-09-09T07:24:02;29.00;;;18.30;;
22363;SDS011;11349;53.412;-1.328;2022-09-09T07:26:30;31.67;;;17.90;;
22363;SDS011;11349;53.412;-1.328;2022-09-09T07:28:56;29.88;;;17.35;;
22363;SDS011;11349;53.412;-1.328;2022-09-09T07:31:29;33.45;;;18.30;;
22363;SDS011;11349;53.412;-1.328;2022-09-09T07:33:56;27.88;;;18.88;;
22363;SDS011;11349;53.412;-1.328;2022-09-09T07:36:24;26.25;;;17.73;;
22363;SDS011;11349;53.412;-1.328;2022-09-09T07:38:52;28.52;;;16.60;;
22363;SDS011;11349;53.412;-1.328;2022-09-09T07:43:47;26.13;;;17.08;;
22363;SDS011;11349;53.412;-1.328;2022-09-09T07:46:15;29.58;;;17.45;;
22363;SDS011;11349;53.412;-1.328;2022-09-09T07:48:49;26.27;;;16.45;;
22363;SDS011;11349;53.412;-1.328;2022-09-09T07:51:17;26.10;;;17.05;;
22363;SDS011;11349;53.412;-1.328;2022-09-09T07:53:48;21.02;;;14.02;;
22363;SDS011;11349;53.412;-1.328;2022-09-09T07:56:18;23.38;;;11.88;;
22363;SDS011;11349;53.412;-1.328;2022-09-09T07:58:46;20.38;;;11.57;;
22363;SDS011;11349;53.412;-1.328;2022-09-09T08:01:14;24.35;;;11.73;;
22363;SDS011;11349;53.412;-1.328;2022-09-09T08:03:43;19.20;;;12.13;;
22363;SDS011;11349;53.412;-1.328;2022-09-09T08:06:10;20.15;;;13.93;;
22363;SDS011;11349;53.412;-1.328;2022-09-09T08:08:37;24.77;;;12.95;;
22363;SDS011;11349;53.412;-1.328;2022-09-09T08:11:10;20.15;;;12.60;;
22363;SDS011;11349;53.412;-1.328;2022-09-09T08:13:37;17.63;;;11.68;;
22363;SDS011;11349;53.412;-1.328;2022-09-09T08:16:05;18.25;;;12.95;;
22363;SDS011;11349;53.412;-1.328;2022-09-09T08:18:30;23.27;;;16.63;;
22363;SDS011;11349;53.412;-1.328;2022-09-09T08:20:56;24.95;;;18.67;;
22363;SDS011;11349;53.412;-1.328;2022-09-09T08:23:22;24.17;;;17.20;;
22363;SDS011;11349;53.412;-1.328;2022-09-09T08:25:48;23.67;;;14.40;;
22363;SDS011;11349;53.412;-1.328;2022-09-09T08:28:15;17.63;;;12.20;;
22363;SDS011;11349;53.412;-1.328;2022-09-09T08:30:43;20.20;;;10.68;;
22363;SDS011;11349;53.412;-1.328;2022-09-09T08:33:08;14.05;;;9.98;;
22363;SDS011;11349;53.412;-1.328;2022-09-09T08:35:34;13.70;;;9.13;;
22363;SDS011;11349;53.412;-1.328;2022-09-09T08:38:03;17.52;;;7.85;;
22363;SDS011;11349;53.412;-1.328;2022-09-09T08:40:29;22.35;;;9.25;;
22363;SDS011;11349;53.412;-1.328;2022-09-09T08:43:03;14.27;;;8.15;;
22363;SDS011;11349;53.412;-1.328;2022-09-09T08:45:33;13.57;;;7.10;;
22363;SDS011;11349;53.412;-1.328;2022-09-09T08:48:10;11.30;;;6.45;;
22363;SDS011;11349;53.412;-1.328;2022-09-09T08:50:44;15.15;;;6.85;;
22363;SDS011;11349;53.412;-1.328;2022-09-09T08:53:17;17.25;;;5.95;;
22363;SDS011;11349;53.412;-1.328;2022-09-09T09:03:28;10.40;;;5.03;;
22363;SDS011;11349;53.412;-1.328;2022-09-09T09:12:01;16.83;;;6.10;;
22363;SDS011;11349;53.412;-1.328;2022-09-09T09:14:34;15.05;;;5.43;;
22363;SDS011;11349;53.412;-1.328;2022-09-09T09:17:06;15.15;;;5.53;;
22363;SDS011;11349;53.412;-1.328;2022-09-09T09:19:39;11.45;;;5.57;;
22363;SDS011;11349;53.412;-1.328;2022-09-09T09:22:10;9.82;;;5.15;;
22363;SDS011;11349;53.412;-1.328;2022-09-09T09:27:28;11.38;;;5.45;;
22363;SDS011;11349;53.412;-1.328;2022-09-09T09:29:56;15.52;;;5.93;;
22363;SDS011;11349;53.412;-1.328;2022-09-09T09:32:24;11.32;;;5.20;;
22363;SDS011;11349;53.412;-1.328;2022-09-09T09:34:54;12.40;;;5.72;;
22363;SDS011;11349;53.412;-1.328;2022-09-09T09:37:26;10.57;;;5.82;;
22363;SDS011;11349;53.412;-1.328;2022-09-09T09:39:55;12.25;;;6.30;;
22363;SDS011;11349;53.412;-1.328;2022-09-09T09:42:21;11.13;;;5.07;;
22363;SDS011;11349;53.412;-1.328;2022-09-09T09:44:47;12.60;;;5.97;;
22363;SDS011;11349;53.412;-1.328;2022-09-09T09:47:20;10.25;;;5.07;;
22363;SDS011;11349;53.412;-1.328;2022-09-09T09:49:57;10.07;;;4.68;;
22363;SDS011;11349;53.412;-1.328;2022-09-09T09:52:30;10.23;;;4.93;;
22363;SDS011;11349;53.412;-1.328;2022-09-09T09:54:57;11.50;;;4.90;;
22363;SDS011;11349;53.412;-1.328;2022-09-09T09:57:28;11.82;;;5.53;;
22363;SDS011;11349;53.412;-1.328;2022-09-09T10:02:46;13.52;;;6.18;;
22363;SDS011;11349;53.412;-1.328;2022-09-09T10:08:04;15.10;;;6.53;;
22363;SDS011;11349;53.412;-1.328;2022-09-09T10:13:31;14.13;;;5.03;;
22363;SDS011;11349;53.412;-1.328;2022-09-09T10:21:19;9.90;;;4.43;;
22363;SDS011;11349;53.412;-1.328;2022-09-09T10:57:33;11.00;;;2.40;;
22363;SDS011;11349;53.412;-1.328;2022-09-09T11:00:05;12.25;;;3.38;;
22363;SDS011;11349;53.412;-1.328;2022-09-09T11:02:39;10.25;;;2.60;;
22363;SDS011;11349;53.412;-1.328;2022-09-09T11:05:17;8.43;;;2.08;;
22363;SDS011;11349;53.412;-1.328;2022-09-09T11:07:56;5.65;;;1.98;;
22363;SDS011;11349;53.412;-1.328;2022-09-09T11:13:17;8.82;;;2.22;;
22363;SDS011;11349;53.412;-1.328;2022-09-09T11:15:55;8.00;;;3.05;;
22363;SDS011;11349;53.412;-1.328;2022-09-09T11:18:29;7.75;;;2.65;;
22363;SDS011;11349;53.412;-1.328;2022-09-09T11:21:02;10.45;;;2.28;;
22363;SDS011;11349;53.412;-1.328;2022-09-09T11:23:52;9.70;;;2.17;;
22363;SDS011;11349;53.412;-1.328;2022-09-09T11:26:28;7.47;;;2.13;;
22363;SDS011;11349;53.412;-1.328;2022-09-09T11:29:14;7.78;;;2.60;;
22363;SDS011;11349;53.412;-1.328;2022-09-09T11:32:12;6.22;;;1.73;;
22363;SDS011;11349;53.412;-1.328;2022-09-09T11:40:40;7.05;;;1.90;;
22363;SDS011;11349;53.412;-1.328;2022-09-09T11:43:14;5.43;;;2.20;;
22363;SDS011;11349;53.412;-1.328;2022-09-09T11:45:49;6.63;;;2.33;;
22363;SDS011;11349;53.412;-1.328;2022-09-09T11:51:03;11.48;;;2.22;;
22363;SDS011;11349;53.412;-1.328;2022-09-09T11:53:35;12.27;;;3.25;;
22363;SDS011;11349;53.412;-1.328;2022-09-09T11:56:22;10.43;;;3.35;;
22363;SDS011;11349;53.412;-1.328;2022-09-09T11:59:23;8.05;;;2.75;;
22363;SDS011;11349;53.412;-1.328;2022-09-09T12:02:00;8.20;;;2.05;;
22363;SDS011;11349;53.412;-1.328;2022-09-09T12:04:32;8.43;;;2.45;;
22363;SDS011;11349;53.412;-1.328;2022-09-09T12:12:33;8.18;;;2.08;;
22363;SDS011;11349;53.412;-1.328;2022-09-09T12:17:37;8.30;;;1.70;;
22363;SDS011;11349;53.412;-1.328;2022-09-09T12:28:33;5.32;;;1.45;;
22363;SDS011;11349;53.412;-1.328;2022-09-09T12:33:22;2.78;;;0.85;;
22363;SDS011;11349;53.412;-1.328;2022-09-09T12:35:58;3.38;;;0.98;;
22363;SDS011;11349;53.412;-1.328;2022-09-09T12:38:36;5.65;;;1.23;;
22363;SDS011;11349;53.412;-1.328;2022-09-09T12:41:03;6.20;;;1.10;;
22363;SDS011;11349;53.412;-1.328;2022-09-09T12:43:29;6.90;;;1.92;;
22363;SDS011;11349;53.412;-1.328;2022-09-09T12:45:56;5.38;;;1.75;;
22363;SDS011;11349;53.412;-1.328;2022-09-09T12:48:32;5.90;;;1.83;;
22363;SDS011;11349;53.412;-1.328;2022-09-09T12:51:01;9.00;;;2.63;;
22363;SDS011;11349;53.412;-1.328;2022-09-09T12:53:35;8.48;;;2.20;;
22363;SDS011;11349;53.412;-1.328;2022-09-09T12:56:03;11.18;;;2.72;;
22363;SDS011;11349;53.412;-1.328;2022-09-09T12:58:36;6.57;;;2.40;;
22363;SDS011;11349;53.412;-1.328;2022-09-09T13:01:03;6.63;;;2.85;;
22363;SDS011;11349;53.412;-1.328;2022-09-09T13:03:30;7.65;;;3.10;;
22363;SDS011;11349;53.412;-1.328;2022-09-09T13:05:58;11.18;;;3.60;;
22363;SDS011;11349;53.412;-1.328;2022-09-09T13:08:36;7.63;;;3.30;;
22363;SDS011;11349;53.412;-1.328;2022-09-09T13:11:04;8.18;;;3.35;;
22363;SDS011;11349;53.412;-1.328;2022-09-09T13:13:37;12.30;;;3.70;;
22363;SDS011;11349;53.412;-1.328;2022-09-09T13:16:05;6.65;;;2.78;;
22363;SDS011;11349;53.412;-1.328;2022-09-09T13:18:43;6.97;;;2.85;;
22363;SDS011;11349;53.412;-1.328;2022-09-09T13:21:09;6.22;;;3.28;;
22363;SDS011;11349;53.412;-1.328;2022-09-09T13:23:37;7.30;;;3.20;;
22363;SDS011;11349;53.412;-1.328;2022-09-09T13:26:25;9.80;;;3.58;;
22363;SDS011;11349;53.412;-1.328;2022-09-09T13:28:54;8.63;;;3.28;;
22363;SDS011;11349;53.412;-1.328;2022-09-09T13:33:53;8.95;;;3.25;;
22363;SDS011;11349;53.412;-1.328;2022-09-09T13:36:29;8.77;;;3.65;;
22363;SDS011;11349;53.412;-1.328;2022-09-09T13:38:57;6.90;;;2.70;;
22363;SDS011;11349;53.412;-1.328;2022-09-09T13:41:34;7.97;;;3.22;;
22363;SDS011;11349;53.412;-1.328;2022-09-09T13:44:16;7.97;;;3.33;;
22363;SDS011;11349;53.412;-1.328;2022-09-09T13:46:48;6.20;;;3.15;;
22363;SDS011;11349;53.412;-1.328;2022-09-09T13:49:24;6.60;;;2.55;;
22363;SDS011;11349;53.412;-1.328;2022-09-09T13:52:02;7.80;;;2.13;;
22363;SDS011;11349;53.412;-1.328;2022-09-09T13:54:31;7.90;;;2.47;;
22363;SDS011;11349;53.412;-1.328;2022-09-09T13:56:57;10.48;;;3.33;;
22363;SDS011;11349;53.412;-1.328;2022-09-09T13:59:22;6.80;;;2.42;;
22363;SDS011;11349;53.412;-1.328;2022-09-09T14:01:49;6.00;;;2.13;;
22363;SDS011;11349;53.412;-1.328;2022-09-09T14:04:17;9.45;;;3.33;;
22363;SDS011;11349;53.412;-1.328;2022-09-09T14:06:43;6.07;;;1.98;;
22363;SDS011;11349;53.412;-1.328;2022-09-09T14:09:14;7.88;;;2.13;;
22363;SDS011;11349;53.412;-1.328;2022-09-09T14:11:42;4.43;;;1.80;;
22363;SDS011;11349;53.412;-1.328;2022-09-09T14:14:09;7.45;;;1.48;;
22363;SDS011;11349;53.412;-1.328;2022-09-09T14:16:34;4.78;;;1.50;;
22363;SDS011;11349;53.412;-1.328;2022-09-09T14:19:01;8.35;;;1.23;;
22363;SDS011;11349;53.412;-1.328;2022-09-09T14:21:27;3.50;;;0.95;;
22363;SDS011;11349;53.412;-1.328;2022-09-09T14:23:53;10.77;;;1.55;;
22363;SDS011;11349;53.412;-1.328;2022-09-09T14:26:20;8.38;;;1.63;;
22363;SDS011;11349;53.412;-1.328;2022-09-09T14:28:46;7.20;;;1.55;;
22363;SDS011;11349;53.412;-1.328;2022-09-09T14:31:13;9.48;;;1.50;;
22363;SDS011;11349;53.412;-1.328;2022-09-09T14:33:39;7.53;;;1.73;;
22363;SDS011;11349;53.412;-1.328;2022-09-09T14:36:05;4.07;;;1.23;;
22363;SDS011;11349;53.412;-1.328;2022-09-09T14:38:32;3.03;;;1.20;;
22363;SDS011;11349;53.412;-1.328;2022-09-09T14:41:00;4.05;;;1.20;;
22363;SDS011;11349;53.412;-1.328;2022-09-09T14:43:28;6.15;;;1.20;;
22363;SDS011;11349;53.412;-1.328;2022-09-09T14:45:57;5.00;;;1.10;;
22363;SDS011;11349;53.412;-1.328;2022-09-09T14:48:22;8.02;;;1.33;;
22363;SDS011;11349;53.412;-1.328;2022-09-09T14:50:50;3.97;;;1.08;;
22363;SDS011;11349;53.412;-1.328;2022-09-09T14:53:16;4.88;;;1.13;;
22363;SDS011;11349;53.412;-1.328;2022-09-09T14:55:42;4.35;;;1.35;;
22363;SDS011;11349;53.412;-1.328;2022-09-09T14:58:11;4.97;;;1.17;;
22363;SDS011;11349;53.412;-1.328;2022-09-09T15:00:38;4.70;;;1.15;;
22363;SDS011;11349;53.412;-1.328;2022-09-09T15:03:04;5.65;;;2.10;;
22363;SDS011;11349;53.412;-1.328;2022-09-09T15:05:29;7.30;;;2.00;;
22363;SDS011;11349;53.412;-1.328;2022-09-09T15:07:56;5.10;;;1.65;;
22363;SDS011;11349;53.412;-1.328;2022-09-09T15:10:23;5.18;;;2.53;;
22363;SDS011;11349;53.412;-1.328;2022-09-09T15:12:49;5.57;;;1.58;;
22363;SDS011;11349;53.412;-1.328;2022-09-09T15:15:15;6.30;;;1.77;;
22363;SDS011;11349;53.412;-1.328;2022-09-09T15:17:40;4.85;;;1.48;;
22363;SDS011;11349;53.412;-1.328;2022-09-09T15:20:06;7.78;;;1.60;;
22363;SDS011;11349;53.412;-1.328;2022-09-09T15:22:32;4.57;;;1.33;;
22363;SDS011;11349;53.412;-1.328;2022-09-09T15:24:58;5.18;;;1.58;;
22363;SDS011;11349;53.412;-1.328;2022-09-09T15:27:24;8.27;;;1.52;;
22363;SDS011;11349;53.412;-1.328;2022-09-09T15:29:50;10.82;;;2.67;;
22363;SDS011;11349;53.412;-1.328;2022-09-09T15:32:16;6.95;;;1.38;;
22363;SDS011;11349;53.412;-1.328;2022-09-09T15:34:42;5.38;;;1.50;;
22363;SDS011;11349;53.412;-1.328;2022-09-09T15:37:11;6.10;;;1.40;;
22363;SDS011;11349;53.412;-1.328;2022-09-09T15:39:38;4.93;;;1.25;;
22363;SDS011;11349;53.412;-1.328;2022-09-09T15:42:04;5.47;;;1.35;;
22363;SDS011;11349;53.412;-1.328;2022-09-09T15:44:38;3.30;;;1.27;;
22363;SDS011;11349;53.412;-1.328;2022-09-09T15:47:10;7.10;;;0.98;;
22363;SDS011;11349;53.412;-1.328;2022-09-09T15:49:40;4.13;;;1.30;;
22363;SDS011;11349;53.412;-1.328;2022-09-09T15:52:05;4.72;;;1.10;;
22363;SDS011;11349;53.412;-1.328;2022-09-09T15:54:32;6.93;;;1.40;;
22363;SDS011;11349;53.412;-1.328;2022-09-09T15:57:00;4.35;;;1.30;;
22363;SDS011;11349;53.412;-1.328;2022-09-09T15:59:29;5.45;;;0.98;;
22363;SDS011;11349;53.412;-1.328;2022-09-09T16:01:56;5.57;;;1.40;;
22363;SDS011;11349;53.412;-1.328;2022-09-09T16:04:23;5.90;;;1.15;;
22363;SDS011;11349;53.412;-1.328;2022-09-09T16:06:53;7.63;;;1.10;;
22363;SDS011;11349;53.412;-1.328;2022-09-09T16:09:27;5.05;;;1.17;;
22363;SDS011;11349;53.412;-1.328;2022-09-09T16:11:55;3.17;;;0.63;;
22363;SDS011;11349;53.412;-1.328;2022-09-09T16:14:23;1.65;;;0.55;;
22363;SDS011;11349;53.412;-1.328;2022-09-09T16:16:50;2.58;;;0.70;;
22363;SDS011;11349;53.412;-1.328;2022-09-09T16:19:16;3.47;;;0.82;;
22363;SDS011;11349;53.412;-1.328;2022-09-09T16:21:43;3.05;;;0.93;;
22363;SDS011;11349;53.412;-1.328;2022-09-09T16:24:12;3.97;;;0.68;;
22363;SDS011;11349;53.412;-1.328;2022-09-09T16:26:41;1.73;;;0.73;;
22363;SDS011;11349;53.412;-1.328;2022-09-09T16:29:09;1.52;;;0.52;;
22363;SDS011;11349;53.412;-1.328;2022-09-09T16:31:39;2.25;;;0.68;;
22363;SDS011;11349;53.412;-1.328;2022-09-09T16:34:06;3.97;;;0.80;;
22363;SDS011;11349;53.412;-1.328;2022-09-09T16:36:33;5.53;;;1.00;;
22363;SDS011;11349;53.412;-1.328;2022-09-09T16:39:04;2.30;;;0.82;;
22363;SDS011;11349;53.412;-1.328;2022-09-09T16:41:31;3.97;;;1.00;;
22363;SDS011;11349;53.412;-1.328;2022-09-09T16:43:59;4.10;;;1.00;;
22363;SDS011;11349;53.412;-1.328;2022-09-09T16:46:27;3.30;;;1.27;;
22363;SDS011;11349;53.412;-1.328;2022-09-09T16:48:58;3.25;;;1.25;;
22363;SDS011;11349;53.412;-1.328;2022-09-09T16:51:33;4.13;;;1.05;;
22363;SDS011;11349;53.412;-1.328;2022-09-09T16:54:02;3.10;;;1.00;;
22363;SDS011;11349;53.412;-1.328;2022-09-09T16:56:30;3.67;;;1.35;;
22363;SDS011;11349;53.412;-1.328;2022-09-09T16:59:02;4.22;;;1.17;;
22363;SDS011;11349;53.412;-1.328;2022-09-09T17:01:31;5.90;;;1.23;;